sensor_id;sensor_type;location;lat;lon;timestamp;temperature;humidity
15121;DHT22;7661;48.904;9.414;2024-02-21T07:09:40;6.20;99.90
15121;DHT22;7661;48.904;9.414;2024-02-21T07:12:07;6.40;99.90
15121;DHT22;7661;48.904;9.414;2024-02-21T07:14:35;6.50;99.90
15121;DHT22;7661;48.904;9.414;2024-02-21T07:17:02;6.50;99.90
15121;DHT22;7661;48.904;9.414;2024-02-21T07:19:28;6.60;99.90
15121;DHT22;7661;48.904;9.414;2024-02-21T07:21:55;6.70;99.90
15121;DHT22;7661;48.904;9.414;2024-02-21T07:24:22;6.70;99.90
15121;DHT22;7661;48.904;9.414;2024-02-21T07:26:50;6.80;99.90
15121;DHT22;7661;48.904;9.414;2024-02-21T07:29:17;6.80;99.90
15121;DHT22;7661;48.904;9.414;2024-02-21T07:31:44;6.90;99.90
15121;DHT22;7661;48.904;9.414;2024-02-21T07:34:11;7.00;99.90
15121;DHT22;7661;48.904;9.414;2024-02-21T07:36:37;7.10;99.90
15121;DHT22;7661;48.904;9.414;2024-02-21T07:39:04;7.40;99.90
15121;DHT22;7661;48.904;9.414;2024-02-21T07:41:31;7.50;99.90
15121;DHT22;7661;48.904;9.414;2024-02-21T07:44:00;7.80;99.90
15121;DHT22;7661;48.904;9.414;2024-02-21T07:46:28;8.00;99.90
15121;DHT22;7661;48.904;9.414;2024-02-21T07:48:55;8.20;99.90
15121;DHT22;7661;48.904;9.414;2024-02-21T07:51:21;8.30;99.90
15121;DHT22;7661;48.904;9.414;2024-02-21T07:53:48;8.40;99.90
15121;DHT22;7661;48.904;9.414;2024-02-21T07:56:15;8.50;99.90
15121;DHT22;7661;48.904;9.414;2024-02-21T07:58:42;8.60;99.90
15121;DHT22;7661;48.904;9.414;2024-02-21T08:01:10;8.70;99.90
15121;DHT22;7661;48.904;9.414;2024-02-21T08:03:37;8.90;99.90
15121;DHT22;7661;48.904;9.414;2024-02-21T08:06:04;9.10;99.90
15121;DHT22;7661;48.904;9.414;2024-02-21T08:08:30;9.20;99.90
15121;DHT22;7661;48.904;9.414;2024-02-21T08:10:57;9.20;99.90
15121;DHT22;7661;48.904;9.414;2024-02-21T08:13:24;9.30;99.90
15121;DHT22;7661;48.904;9.414;2024-02-21T08:15:50;9.40;99.90
15121;DHT22;7661;48.904;9.414;2024-02-21T08:18:19;9.50;99.90
15121;DHT22;7661;48.904;9.414;2024-02-21T08:20:45;9.60;99.90
15121;DHT22;7661;48.904;9.414;2024-02-21T08:23:12;9.60;99.90
15121;DHT22;7661;48.904;9.414;2024-02-21T08:25:39;9.60;99.90
15121;DHT22;7661;48.904;9.414;2024-02-21T08:28:05;9.70;99.90
15121;DHT22;7661;48.904;9.414;2024-02-21T08:30:33;9.70;99.90
15121;DHT22;7661;48.904;9.414;2024-02-21T08:32:59;9.70;99.90
15121;DHT22;7661;48.904;9.414;2024-02-21T08:35:27;9.80;99.90
15121;DHT22;7661;48.904;9.414;2024-02-21T08:37:54;10.00;99.90
15121;DHT22;7661;48.904;9.414;2024-02-21T08:40:21;10.30;99.90
15121;DHT22;7661;48.904;9.414;2024-02-21T08:42:47;10.40;99.90
15121;DHT22;7661;48.904;9.414;2024-02-21T08:45:15;10.40;99.90
15121;DHT22;7661;48.904;9.414;2024-02-21T08:47:42;10.30;99.90
15121;DHT22;7661;48.904;9.414;2024-02-21T08:50:09;10.40;99.90
15121;DHT22;7661;48.904;9.414;2024-02-21T08:52:38;10.40;99.90
15121;DHT22;7661;48.904;9.414;2024-02-21T08:55:05;10.40;99.90
15121;DHT22;7661;48.904;9.414;2024-02-21T08:57:32;10.20;99.90
15121;DHT22;7661;48.904;9.414;2024-02-21T09:00:03;10.20;99.90
15121;DHT22;7661;48.904;9.414;2024-02-21T09:02:35;10.20;99.90
15121;DHT22;7661;48.904;9.414;2024-02-21T09:05:02;10.00;99.90
15121;DHT22;7661;48.904;9.414;2024-02-21T09:07:30;10.00;99.90
15121;DHT22;7661;48.904;9.414;2024-02-21T09:09:58;9.90;99.90
15121;DHT22;7661;48.904;9.414;2024-02-21T09:12:25;10.00;99.90
15121;DHT22;7661;48.904;9.414;2024-02-21T09:14:52;10.00;99.90
15121;DHT22;7661;48.904;9.414;2024-02-21T09:17:18;9.90;99.90
15121;DHT22;7661;48.904;9.414;2024-02-21T09:19:46;9.90;99.90
15121;DHT22;7661;48.904;9.414;2024-02-21T09:22:13;9.90;99.90
15121;DHT22;7661;48.904;9.414;2024-02-21T09:24:40;9.90;99.90
15121;DHT22;7661;48.904;9.414;2024-02-21T09:27:08;10.00;99.90
15121;DHT22;7661;48.904;9.414;2024-02-21T09:29:34;9.90;99.90
15121;DHT22;7661;48.904;9.414;2024-02-21T09:32:01;9.90;99.90
15121;DHT22;7661;48.904;9.414;2024-02-21T09:34:28;10.00;99.90
15121;DHT22;7661;48.904;9.414;2024-02-21T09:36:55;10.00;99.90
15121;DHT22;7661;48.904;9.414;2024-02-21T09:39:22;10.00;99.90
15121;DHT22;7661;48.904;9.414;2024-02-21T09:41:50;10.10;99.90
15121;DHT22;7661;48.904;9.414;2024-02-21T09:44:19;10.10;99.90
15121;DHT22;7661;48.904;9.414;2024-02-21T09:46:49;10.30;99.90
15121;DHT22;7661;48.904;9.414;2024-02-21T09:49:21;10.40;99.90
15121;DHT22;7661;48.904;9.414;2024-02-21T09:51:52;10.70;99.90
15121;DHT22;7661;48.904;9.414;2024-02-21T09:54:20;10.90;99.90
15121;DHT22;7661;48.904;9.414;2024-02-21T09:56:47;11.10;99.90
15121;DHT22;7661;48.904;9.414;2024-02-21T09:59:14;11.30;99.90
15121;DHT22;7661;48.904;9.414;2024-02-21T10:01:43;11.40;99.90
15121;DHT22;7661;48.904;9.414;2024-02-21T10:04:12;11.50;99.90
15121;DHT22;7661;48.904;9.414;2024-02-21T10:06:39;11.60;99.90
15121;DHT22;7661;48.904;9.414;2024-02-21T10:09:06;11.60;99.90
15121;DHT22;7661;48.904;9.414;2024-02-21T10:11:32;11.50;99.90
15121;DHT22;7661;48.904;9.414;2024-02-21T10:14:03;11.50;99.90
15121;DHT22;7661;48.904;9.414;2024-02-21T10:16:30;11.50;99.90
15121;DHT22;7661;48.904;9.414;2024-02-21T10:18:58;11.60;99.90
15121;DHT22;7661;48.904;9.414;2024-02-21T10:21:25;11.80;99.90
15121;DHT22;7661;48.904;9.414;2024-02-21T10:23:52;12.00;99.90
15121;DHT22;7661;48.904;9.414;2024-02-21T10:26:19;12.10;99.90
15121;DHT22;7661;48.904;9.414;2024-02-21T10:28:46;12.20;99.90
15121;DHT22;7661;48.904;9.414;2024-02-21T10:31:21;12.10;99.90
15121;DHT22;7661;48.904;9.414;2024-02-21T10:33:53;12.00;99.90
15121;DHT22;7661;48.904;9.414;2024-02-21T10:36:21;12.10;99.90
15121;DHT22;7661;48.904;9.414;2024-02-21T10:38:48;12.10;99.90
15121;DHT22;7661;48.904;9.414;2024-02-21T10:41:14;12.20;99.90
15121;DHT22;7661;48.904;9.414;2024-02-21T10:43:41;12.30;99.90
15121;DHT22;7661;48.904;9.414;2024-02-21T10:46:09;12.30;99.90
15121;DHT22;7661;48.904;9.414;2024-02-21T10:48:43;12.40;99.90
15121;DHT22;7661;48.904;9.414;2024-02-21T10:51:15;12.50;99.90
15121;DHT22;7661;48.904;9.414;2024-02-21T10:53:45;12.60;99.90
15121;DHT22;7661;48.904;9.414;2024-02-21T10:56:16;12.70;99.90
15121;DHT22;7661;48.904;9.414;2024-02-21T10:58:45;12.90;99.90
15121;DHT22;7661;48.904;9.414;2024-02-21T11:01:12;12.90;99.90
15121;DHT22;7661;48.904;9.414;2024-02-21T11:03:40;12.80;99.90
15121;DHT22;7661;48.904;9.414;2024-02-21T11:06:07;12.90;99.90
15121;DHT22;7661;48.904;9.414;2024-02-21T11:08:35;13.20;99.90
15121;DHT22;7661;48.904;9.414;2024-02-21T11:11:03;13.20;99.90
15121;DHT22;7661;48.904;9.414;2024-02-21T11:13:30;13.20;99.90
15121;DHT22;7661;48.904;9.414;2024-02-21T11:16:05;13.30;99.90
15121;DHT22;7661;48.904;9.414;2024-02-21T11:18:32;13.30;99.90
15121;DHT22;7661;48.904;9.414;2024-02-21T11:20:59;13.30;99.90
15121;DHT22;7661;48.904;9.414;2024-02-21T11:23:26;13.30;99.90
15121;DHT22;7661;48.904;9.414;2024-02-21T11:25:52;13.40;99.90
15121;DHT22;7661;48.904;9.414;2024-02-21T11:28:32;13.30;99.90
15121;DHT22;7661;48.904;9.414;2024-02-21T11:31:06;13.20;99.90
15121;DHT22;7661;48.904;9.414;2024-02-21T11:33:33;13.00;99.90
15121;DHT22;7661;48.904;9.414;2024-02-21T11:36:00;13.10;99.90
15121;DHT22;7661;48.904;9.414;2024-02-21T11:38:26;13.10;99.90
15121;DHT22;7661;48.904;9.414;2024-02-21T11:40:53;12.90;99.90
15121;DHT22;7661;48.904;9.414;2024-02-21T11:43:20;12.80;99.90
15121;DHT22;7661;48.904;9.414;2024-02-21T11:45:48;12.70;99.90
15121;DHT22;7661;48.904;9.414;2024-02-21T11:48:15;12.70;99.90
15121;DHT22;7661;48.904;9.414;2024-02-21T11:50:41;12.80;99.90
15121;DHT22;7661;48.904;9.414;2024-02-21T11:53:09;13.00;99.90
15121;DHT22;7661;48.904;9.414;2024-02-21T11:55:35;13.30;99.90
15121;DHT22;7661;48.904;9.414;2024-02-21T11:58:02;13.50;99.90
15121;DHT22;7661;48.904;9.414;2024-02-21T12:00:30;13.60;99.90
15121;DHT22;7661;48.904;9.414;2024-02-21T12:02:58;13.80;99.90
15121;DHT22;7661;48.904;9.414;2024-02-21T12:05:27;13.80;99.90
15121;DHT22;7661;48.904;9.414;2024-02-21T12:07:55;13.90;99.90
15121;DHT22;7661;48.904;9.414;2024-02-21T12:10:23;13.90;99.90
15121;DHT22;7661;48.904;9.414;2024-02-21T12:12:50;14.10;99.90
15121;DHT22;7661;48.904;9.414;2024-02-21T12:15:20;14.10;99.90
15121;DHT22;7661;48.904;9.414;2024-02-21T12:17:46;14.00;99.90
15121;DHT22;7661;48.904;9.414;2024-02-21T12:20:14;14.00;99.90
15121;DHT22;7661;48.904;9.414;2024-02-21T12:22:41;13.90;99.90
15121;DHT22;7661;48.904;9.414;2024-02-21T12:25:15;13.80;99.90
15121;DHT22;7661;48.904;9.414;2024-02-21T12:27:43;13.70;99.90
15121;DHT22;7661;48.904;9.414;2024-02-21T12:30:10;13.60;99.90
15121;DHT22;7661;48.904;9.414;2024-02-21T12:32:37;13.50;99.90
15121;DHT22;7661;48.904;9.414;2024-02-21T12:35:04;13.40;99.90
15121;DHT22;7661;48.904;9.414;2024-02-21T12:37:32;13.20;99.90
15121;DHT22;7661;48.904;9.414;2024-02-21T12:39:59;13.20;99.90
15121;DHT22;7661;48.904;9.414;2024-02-21T12:42:26;13.20;99.90
15121;DHT22;7661;48.904;9.414;2024-02-21T12:44:54;13.30;99.90
15121;DHT22;7661;48.904;9.414;2024-02-21T12:47:20;13.40;99.90
15121;DHT22;7661;48.904;9.414;2024-02-21T12:49:49;13.50;99.90
15121;DHT22;7661;48.904;9.414;2024-02-21T12:52:15;13.60;99.90
15121;DHT22;7661;48.904;9.414;2024-02-21T12:54:44;13.80;99.90
15121;DHT22;7661;48.904;9.414;2024-02-21T12:57:10;13.80;99.90
15121;DHT22;7661;48.904;9.414;2024-02-21T12:59:37;13.80;99.90
15121;DHT22;7661;48.904;9.414;2024-02-21T13:02:04;13.80;99.90
15121;DHT22;7661;48.904;9.414;2024-02-21T13:04:31;13.80;99.90
15121;DHT22;7661;48.904;9.414;2024-02-21T13:06:58;13.70;99.90
15121;DHT22;7661;48.904;9.414;2024-02-21T13:09:24;13.80;99.90
15121;DHT22;7661;48.904;9.414;2024-02-21T13:11:52;13.80;99.90
15121;DHT22;7661;48.904;9.414;2024-02-21T13:14:19;13.70;99.90
15121;DHT22;7661;48.904;9.414;2024-02-21T13:16:48;13.70;99.90
15121;DHT22;7661;48.904;9.414;2024-02-21T13:19:15;13.90;99.90
15121;DHT22;7661;48.904;9.414;2024-02-21T13:21:42;14.10;99.90
15121;DHT22;7661;48.904;9.414;2024-02-21T13:24:09;14.10;99.10
15121;DHT22;7661;48.904;9.414;2024-02-21T13:26:36;14.20;99.90
15121;DHT22;7661;48.904;9.414;2024-02-21T13:29:04;14.30;99.60
15121;DHT22;7661;48.904;9.414;2024-02-21T13:31:30;14.30;99.20
15121;DHT22;7661;48.904;9.414;2024-02-21T13:33:57;14.30;99.90
15121;DHT22;7661;48.904;9.414;2024-02-21T13:36:24;14.40;99.90
15121;DHT22;7661;48.904;9.414;2024-02-21T13:38:51;14.50;99.90
15121;DHT22;7661;48.904;9.414;2024-02-21T13:41:18;14.70;99.90
15121;DHT22;7661;48.904;9.414;2024-02-21T13:43:47;14.90;99.90
15121;DHT22;7661;48.904;9.414;2024-02-21T13:46:15;14.90;98.10
15121;DHT22;7661;48.904;9.414;2024-02-21T13:48:41;14.70;97.70
15121;DHT22;7661;48.904;9.414;2024-02-21T13:51:08;14.60;98.00
15121;DHT22;7661;48.904;9.414;2024-02-21T13:53:37;14.60;98.30
15121;DHT22;7661;48.904;9.414;2024-02-21T13:56:04;14.60;98.30
15121;DHT22;7661;48.904;9.414;2024-02-21T13:58:30;14.60;99.40
15121;DHT22;7661;48.904;9.414;2024-02-21T14:00:57;14.70;98.60
15121;DHT22;7661;48.904;9.414;2024-02-21T14:03:25;14.70;97.80
15121;DHT22;7661;48.904;9.414;2024-02-21T14:05:52;14.60;97.80
15121;DHT22;7661;48.904;9.414;2024-02-21T14:08:20;14.60;98.40
15121;DHT22;7661;48.904;9.414;2024-02-21T14:10:47;14.60;95.80
15121;DHT22;7661;48.904;9.414;2024-02-21T14:13:14;14.50;94.70
15121;DHT22;7661;48.904;9.414;2024-02-21T14:15:43;14.10;94.20
15121;DHT22;7661;48.904;9.414;2024-02-21T14:18:11;13.90;93.90
15121;DHT22;7661;48.904;9.414;2024-02-21T14:20:40;13.80;95.10
15121;DHT22;7661;48.904;9.414;2024-02-21T14:23:06;13.70;93.90
15121;DHT22;7661;48.904;9.414;2024-02-21T14:25:33;13.60;94.50
15121;DHT22;7661;48.904;9.414;2024-02-21T14:28:00;13.60;94.40
15121;DHT22;7661;48.904;9.414;2024-02-21T14:30:27;13.50;94.60
15121;DHT22;7661;48.904;9.414;2024-02-21T14:32:53;13.40;94.80
15121;DHT22;7661;48.904;9.414;2024-02-21T14:35:20;13.40;94.80
15121;DHT22;7661;48.904;9.414;2024-02-21T14:37:48;13.40;94.30
15121;DHT22;7661;48.904;9.414;2024-02-21T14:40:15;13.30;94.30
15121;DHT22;7661;48.904;9.414;2024-02-21T14:42:41;13.20;94.50
15121;DHT22;7661;48.904;9.414;2024-02-21T14:45:08;13.30;94.50
15121;DHT22;7661;48.904;9.414;2024-02-21T14:47:35;13.20;94.00
15121;DHT22;7661;48.904;9.414;2024-02-21T14:50:02;13.30;93.80
15121;DHT22;7661;48.904;9.414;2024-02-21T14:52:30;13.30;93.00
15121;DHT22;7661;48.904;9.414;2024-02-21T14:54:58;13.30;93.20
15121;DHT22;7661;48.904;9.414;2024-02-21T14:57:25;13.20;93.10
15121;DHT22;7661;48.904;9.414;2024-02-21T14:59:51;13.20;93.10
15121;DHT22;7661;48.904;9.414;2024-02-21T15:02:21;13.20;93.20
15121;DHT22;7661;48.904;9.414;2024-02-21T15:04:48;13.20;94.40
15121;DHT22;7661;48.904;9.414;2024-02-21T15:07:16;13.20;95.10
15121;DHT22;7661;48.904;9.414;2024-02-21T15:09:44;13.20;95.80
15121;DHT22;7661;48.904;9.414;2024-02-21T15:12:12;13.30;95.90
15121;DHT22;7661;48.904;9.414;2024-02-21T15:14:39;13.30;93.70
15121;DHT22;7661;48.904;9.414;2024-02-21T15:17:05;13.20;93.30
15121;DHT22;7661;48.904;9.414;2024-02-21T15:19:32;13.20;93.50
15121;DHT22;7661;48.904;9.414;2024-02-21T15:21:59;13.30;94.00
15121;DHT22;7661;48.904;9.414;2024-02-21T15:24:26;13.20;92.30
15121;DHT22;7661;48.904;9.414;2024-02-21T15:26:53;13.20;93.60
15121;DHT22;7661;48.904;9.414;2024-02-21T15:29:21;13.10;92.50
15121;DHT22;7661;48.904;9.414;2024-02-21T15:31:49;13.10;92.80
15121;DHT22;7661;48.904;9.414;2024-02-21T15:34:15;13.10;92.60
15121;DHT22;7661;48.904;9.414;2024-02-21T15:36:43;13.00;92.10
15121;DHT22;7661;48.904;9.414;2024-02-21T15:39:09;13.00;92.50
15121;DHT22;7661;48.904;9.414;2024-02-21T15:41:36;13.00;91.50
15121;DHT22;7661;48.904;9.414;2024-02-21T15:44:03;12.90;90.80
15121;DHT22;7661;48.904;9.414;2024-02-21T15:46:31;12.80;91.70
15121;DHT22;7661;48.904;9.414;2024-02-21T15:48:59;12.90;92.40
15121;DHT22;7661;48.904;9.414;2024-02-21T15:51:26;12.80;92.60
15121;DHT22;7661;48.904;9.414;2024-02-21T15:53:53;12.80;92.20
15121;DHT22;7661;48.904;9.414;2024-02-21T15:56:19;12.70;93.10
15121;DHT22;7661;48.904;9.414;2024-02-21T15:58:46;12.70;93.60
15121;DHT22;7661;48.904;9.414;2024-02-21T16:01:14;12.70;94.20
15121;DHT22;7661;48.904;9.414;2024-02-21T16:03:42;12.60;94.90
15121;DHT22;7661;48.904;9.414;2024-02-21T16:06:09;12.70;95.30
15121;DHT22;7661;48.904;9.414;2024-02-21T16:08:35;12.60;95.20
15121;DHT22;7661;48.904;9.414;2024-02-21T16:11:06;12.60;95.60
15121;DHT22;7661;48.904;9.414;2024-02-21T16:13:34;12.50;96.00
15121;DHT22;7661;48.904;9.414;2024-02-21T16:16:00;12.50;96.00
15121;DHT22;7661;48.904;9.414;2024-02-21T16:18:28;12.40;96.30
15121;DHT22;7661;48.904;9.414;2024-02-21T16:20:57;12.30;96.80
15121;DHT22;7661;48.904;9.414;2024-02-21T16:23:23;12.30;97.30
15121;DHT22;7661;48.904;9.414;2024-02-21T16:25:50;12.20;97.80
15121;DHT22;7661;48.904;9.414;2024-02-21T16:28:17;12.20;98.20
15121;DHT22;7661;48.904;9.414;2024-02-21T16:30:44;12.10;98.30
15121;DHT22;7661;48.904;9.414;2024-02-21T16:33:11;12.10;98.50
15121;DHT22;7661;48.904;9.414;2024-02-21T16:35:37;12.10;98.60
15121;DHT22;7661;48.904;9.414;2024-02-21T16:38:05;12.10;99.10
15121;DHT22;7661;48.904;9.414;2024-02-21T16:40:33;12.00;99.10
15121;DHT22;7661;48.904;9.414;2024-02-21T16:43:02;11.90;99.70
15121;DHT22;7661;48.904;9.414;2024-02-21T16:45:30;11.80;99.90
15121;DHT22;7661;48.904;9.414;2024-02-21T16:47:57;11.80;99.90
15121;DHT22;7661;48.904;9.414;2024-02-21T16:50:23;11.80;99.90
15121;DHT22;7661;48.904;9.414;2024-02-21T16:52:50;11.70;99.90
15121;DHT22;7661;48.904;9.414;2024-02-21T16:55:19;11.70;99.90
15121;DHT22;7661;48.904;9.414;2024-02-21T16:57:47;11.60;99.90
15121;DHT22;7661;48.904;9.414;2024-02-21T17:00:14;11.70;99.90
15121;DHT22;7661;48.904;9.414;2024-02-21T17:02:41;11.70;99.90
15121;DHT22;7661;48.904;9.414;2024-02-21T17:05:08;11.70;99.90
15121;DHT22;7661;48.904;9.414;2024-02-21T17:07:35;11.60;99.90
15121;DHT22;7661;48.904;9.414;2024-02-21T17:10:02;11.60;99.90
15121;DHT22;7661;48.904;9.414;2024-02-21T17:12:32;11.50;99.90
15121;DHT22;7661;48.904;9.414;2024-02-21T17:15:02;11.50;99.90
15121;DHT22;7661;48.904;9.414;2024-02-21T17:17:28;11.50;99.90
15121;DHT22;7661;48.904;9.414;2024-02-21T17:19:55;11.40;99.90
15121;DHT22;7661;48.904;9.414;2024-02-21T17:22:22;11.40;99.90
15121;DHT22;7661;48.904;9.414;2024-02-21T17:24:48;11.30;99.90
15121;DHT22;7661;48.904;9.414;2024-02-21T17:27:15;11.20;99.90
15121;DHT22;7661;48.904;9.414;2024-02-21T17:29:43;11.20;99.90
15121;DHT22;7661;48.904;9.414;2024-02-21T17:32:10;11.20;99.90
15121;DHT22;7661;48.904;9.414;2024-02-21T17:34:37;11.20;99.90
15121;DHT22;7661;48.904;9.414;2024-02-21T17:37:04;11.20;99.90
15121;DHT22;7661;48.904;9.414;2024-02-21T17:39:31;11.20;99.90
15121;DHT22;7661;48.904;9.414;2024-02-21T17:41:58;11.20;99.90
15121;DHT22;7661;48.904;9.414;2024-02-21T17:44:25;11.30;99.90
15121;DHT22;7661;48.904;9.414;2024-02-21T17:46:53;11.20;99.90
15121;DHT22;7661;48.904;9.414;2024-02-21T17:49:20;11.20;99.90
15121;DHT22;7661;48.904;9.414;2024-02-21T17:51:46;11.20;99.90
15121;DHT22;7661;48.904;9.414;2024-02-21T17:54:13;11.20;99.90
15121;DHT22;7661;48.904;9.414;2024-02-21T17:56:41;11.20;99.90
15121;DHT22;7661;48.904;9.414;2024-02-21T17:59:08;11.10;99.90
15121;DHT22;7661;48.904;9.414;2024-02-21T18:01:35;11.10;99.90
15121;DHT22;7661;48.904;9.414;2024-02-21T18:04:03;11.10;99.90
15121;DHT22;7661;48.904;9.414;2024-02-21T18:06:30;11.10;99.90
15121;DHT22;7661;48.904;9.414;2024-02-21T18:08:58;11.00;99.90
15121;DHT22;7661;48.904;9.414;2024-02-21T18:11:25;11.00;99.90
15121;DHT22;7661;48.904;9.414;2024-02-21T18:13:50;11.00;99.90
15121;DHT22;7661;48.904;9.414;2024-02-21T18:16:20;11.00;99.90
15121;DHT22;7661;48.904;9.414;2024-02-21T18:18:48;11.10;99.90
15121;DHT22;7661;48.904;9.414;2024-02-21T18:21:16;11.10;99.90
15121;DHT22;7661;48.904;9.414;2024-02-21T18:23:43;11.10;99.90
15121;DHT22;7661;48.904;9.414;2024-02-21T18:26:11;11.00;99.90
15121;DHT22;7661;48.904;9.414;2024-02-21T18:28:37;11.00;99.90
15121;DHT22;7661;48.904;9.414;2024-02-21T18:31:04;11.00;99.90
15121;DHT22;7661;48.904;9.414;2024-02-21T18:33:31;11.00;99.90
15121;DHT22;7661;48.904;9.414;2024-02-21T18:35:59;10.90;99.90
15121;DHT22;7661;48.904;9.414;2024-02-21T18:38:27;10.90;99.90
15121;DHT22;7661;48.904;9.414;2024-02-21T18:40:54;11.00;99.90
15121;DHT22;7661;48.904;9.414;2024-02-21T18:43:21;11.00;99.90
15121;DHT22;7661;48.904;9.414;2024-02-21T18:45:47;11.00;99.90
15121;DHT22;7661;48.904;9.414;2024-02-21T18:48:14;11.00;99.90
15121;DHT22;7661;48.904;9.414;2024-02-21T18:50:41;11.00;99.90
15121;DHT22;7661;48.904;9.414;2024-02-21T18:53:07;11.10;99.90
15121;DHT22;7661;48.904;9.414;2024-02-21T18:55:36;11.10;99.90
15121;DHT22;7661;48.904;9.414;2024-02-21T18:58:02;11.00;99.90
15121;DHT22;7661;48.904;9.414;2024-02-21T19:00:29;10.90;99.90
15121;DHT22;7661;48.904;9.414;2024-02-21T19:02:56;10.90;99.90
15121;DHT22;7661;48.904;9.414;2024-02-21T19:05:23;11.00;99.90
15121;DHT22;7661;48.904;9.414;2024-02-21T19:07:50;10.90;99.90
15121;DHT22;7661;48.904;9.414;2024-02-21T19:10:16;10.90;99.90
15121;DHT22;7661;48.904;9.414;2024-02-21T19:12:44;10.90;99.90
15121;DHT22;7661;48.904;9.414;2024-02-21T19:15:11;10.80;99.90
15121;DHT22;7661;48.904;9.414;2024-02-21T19:17:38;10.90;99.90
15121;DHT22;7661;48.904;9.414;2024-02-21T19:20:06;10.90;99.90
15121;DHT22;7661;48.904;9.414;2024-02-21T19:22:34;10.90;99.90
15121;DHT22;7661;48.904;9.414;2024-02-21T19:25:01;10.90;99.90
15121;DHT22;7661;48.904;9.414;2024-02-21T19:27:32;10.90;99.90
15121;DHT22;7661;48.904;9.414;2024-02-21T19:30:00;10.90;99.90
15121;DHT22;7661;48.904;9.414;2024-02-21T19:32:27;11.00;99.90
15121;DHT22;7661;48.904;9.414;2024-02-21T19:34:54;11.00;99.90
15121;DHT22;7661;48.904;9.414;2024-02-21T19:37:21;11.00;99.90
15121;DHT22;7661;48.904;9.414;2024-02-21T19:39:48;11.00;99.90
15121;DHT22;7661;48.904;9.414;2024-02-21T19:42:15;11.10;99.90
15121;DHT22;7661;48.904;9.414;2024-02-21T19:44:42;11.10;99.90
15121;DHT22;7661;48.904;9.414;2024-02-21T19:47:10;11.10;99.90
15121;DHT22;7661;48.904;9.414;2024-02-21T19:49:38;11.00;99.90
15121;DHT22;7661;48.904;9.414;2024-02-21T19:52:05;11.00;99.90
15121;DHT22;7661;48.904;9.414;2024-02-21T19:54:31;11.10;99.90
15121;DHT22;7661;48.904;9.414;2024-02-21T19:56:58;11.10;99.90
15121;DHT22;7661;48.904;9.414;2024-02-21T19:59:25;11.10;99.90
15121;DHT22;7661;48.904;9.414;2024-02-21T20:01:52;11.10;99.90
15121;DHT22;7661;48.904;9.414;2024-02-21T20:04:20;11.10;99.90
15121;DHT22;7661;48.904;9.414;2024-02-21T20:06:47;11.10;99.90
15121;DHT22;7661;48.904;9.414;2024-02-21T20:09:14;11.00;99.90
15121;DHT22;7661;48.904;9.414;2024-02-21T20:11:41;10.90;99.90
15121;DHT22;7661;48.904;9.414;2024-02-21T20:14:08;10.80;99.90
15121;DHT22;7661;48.904;9.414;2024-02-21T20:16:35;10.90;99.90
15121;DHT22;7661;48.904;9.414;2024-02-21T20:19:02;11.00;99.90
15121;DHT22;7661;48.904;9.414;2024-02-21T20:21:30;11.10;99.90
15121;DHT22;7661;48.904;9.414;2024-02-21T20:23:57;11.20;99.90
15121;DHT22;7661;48.904;9.414;2024-02-21T20:26:24;11.10;99.90
15121;DHT22;7661;48.904;9.414;2024-02-21T20:28:51;11.10;99.90
15121;DHT22;7661;48.904;9.414;2024-02-21T20:31:18;11.10;99.90
15121;DHT22;7661;48.904;9.414;2024-02-21T20:33:47;11.10;99.90
15121;DHT22;7661;48.904;9.414;2024-02-21T20:36:13;11.10;99.90
15121;DHT22;7661;48.904;9.414;2024-02-21T20:38:42;11.10;99.90
15121;DHT22;7661;48.904;9.414;2024-02-21T20:41:15;11.10;99.90
15121;DHT22;7661;48.904;9.414;2024-02-21T20:43:42;11.20;99.90
15121;DHT22;7661;48.904;9.414;2024-02-21T20:46:09;11.20;99.90
15121;DHT22;7661;48.904;9.414;2024-02-21T20:48:36;11.10;99.90
15121;DHT22;7661;48.904;9.414;2024-02-21T20:51:01;11.20;99.90
15121;DHT22;7661;48.904;9.414;2024-02-21T20:53:28;11.20;99.90
15121;DHT22;7661;48.904;9.414;2024-02-21T20:55:56;11.10;99.90
15121;DHT22;7661;48.904;9.414;2024-02-21T20:58:23;11.20;99.90
15121;DHT22;7661;48.904;9.414;2024-02-21T21:00:50;11.10;99.90
15121;DHT22;7661;48.904;9.414;2024-02-21T21:03:17;11.20;99.90
15121;DHT22;7661;48.904;9.414;2024-02-21T21:05:44;11.20;99.90
15121;DHT22;7661;48.904;9.414;2024-02-21T21:08:11;11.20;99.90
15121;DHT22;7661;48.904;9.414;2024-02-21T21:10:39;11.20;99.90
15121;DHT22;7661;48.904;9.414;2024-02-21T21:13:09;11.20;99.90
15121;DHT22;7661;48.904;9.414;2024-02-21T21:15:36;11.20;99.90
15121;DHT22;7661;48.904;9.414;2024-02-21T21:18:03;11.20;99.90
15121;DHT22;7661;48.904;9.414;2024-02-21T21:20:30;11.20;99.90
15121;DHT22;7661;48.904;9.414;2024-02-21T21:22:57;11.20;99.90
15121;DHT22;7661;48.904;9.414;2024-02-21T21:25:23;11.20;99.90
15121;DHT22;7661;48.904;9.414;2024-02-21T21:27:51;11.20;99.90
15121;DHT22;7661;48.904;9.414;2024-02-21T21:30:20;11.10;99.90
15121;DHT22;7661;48.904;9.414;2024-02-21T21:32:46;11.10;99.90
15121;DHT22;7661;48.904;9.414;2024-02-21T21:35:14;11.10;99.90
15121;DHT22;7661;48.904;9.414;2024-02-21T21:37:41;11.10;99.90
15121;DHT22;7661;48.904;9.414;2024-02-21T21:40:08;11.00;99.90
15121;DHT22;7661;48.904;9.414;2024-02-21T21:42:37;11.10;99.90
15121;DHT22;7661;48.904;9.414;2024-02-21T21:45:05;11.10;99.90
15121;DHT22;7661;48.904;9.414;2024-02-21T21:47:33;11.10;99.90
15121;DHT22;7661;48.904;9.414;2024-02-21T21:50:00;11.10;99.90
15121;DHT22;7661;48.904;9.414;2024-02-21T21:52:27;11.00;99.90
15121;DHT22;7661;48.904;9.414;2024-02-21T21:54:54;11.00;99.90
15121;DHT22;7661;48.904;9.414;2024-02-21T21:57:21;11.00;99.90
15121;DHT22;7661;48.904;9.414;2024-02-21T21:59:49;11.00;99.90
15121;DHT22;7661;48.904;9.414;2024-02-21T22:02:16;11.00;99.90
15121;DHT22;7661;48.904;9.414;2024-02-21T22:04:44;11.00;99.90
15121;DHT22;7661;48.904;9.414;2024-02-21T22:07:11;11.00;99.90
15121;DHT22;7661;48.904;9.414;2024-02-21T22:09:39;11.00;99.90
15121;DHT22;7661;48.904;9.414;2024-02-21T22:12:06;11.00;99.90
15121;DHT22;7661;48.904;9.414;2024-02-21T22:14:33;11.00;99.90
15121;DHT22;7661;48.904;9.414;2024-02-21T22:17:00;11.00;99.90
15121;DHT22;7661;48.904;9.414;2024-02-21T22:19:27;11.00;99.90
15121;DHT22;7661;48.904;9.414;2024-02-21T22:21:55;11.10;99.90
15121;DHT22;7661;48.904;9.414;2024-02-21T22:24:22;11.20;99.90
15121;DHT22;7661;48.904;9.414;2024-02-21T22:26:48;11.10;99.90
15121;DHT22;7661;48.904;9.414;2024-02-21T22:29:16;11.10;99.90
15121;DHT22;7661;48.904;9.414;2024-02-21T22:31:42;11.10;99.90
15121;DHT22;7661;48.904;9.414;2024-02-21T22:34:09;11.10;99.90
15121;DHT22;7661;48.904;9.414;2024-02-21T22:36:36;11.20;99.90
15121;DHT22;7661;48.904;9.414;2024-02-21T22:39:04;11.10;99.90
15121;DHT22;7661;48.904;9.414;2024-02-21T22:41:34;11.10;99.90
15121;DHT22;7661;48.904;9.414;2024-02-21T22:44:01;11.20;99.90
15121;DHT22;7661;48.904;9.414;2024-02-21T22:46:28;11.20;99.90
15121;DHT22;7661;48.904;9.414;2024-02-21T22:48:55;11.20;99.90
15121;DHT22;7661;48.904;9.414;2024-02-21T22:51:22;11.20;99.90
15121;DHT22;7661;48.904;9.414;2024-02-21T22:53:49;11.10;99.90
15121;DHT22;7661;48.904;9.414;2024-02-21T22:56:17;11.10;99.90